Time;durP1;ratioP1;P1;durP2;ratioP2;P2;SDS_P1;SDS_P2;PMS_P1;PMS_P2;Temp;Humidity;BMP_temperature;BMP_pressure;BME280_temperature;BME280_humidity;BME280_pressure;Samples;Min_cycle;Max_cycle;Signal;HPM_P1;HPM_P2
2022/02/19 00:00:43;;;;;;;13.80;5.40;;;;;;;8.60;77.86;98005.78;89402;1279;97989;-57
2022/02/19 00:02:48;;;;;;;10.00;5.20;;;;;;;8.60;77.91;98007.86;89460;1279;88187;-58
2022/02/19 00:04:57;;;;;;;11.00;5.00;;;;;;;8.60;77.77;98001.56;89377;1279;95505;-57
2022/02/19 00:07:06;;;;;;;11.10;5.20;;;;;;;8.62;77.66;98015.61;89411;1279;79682;-57
2022/02/19 00:09:11;;;;;;;15.00;5.60;;;;;;;8.66;77.67;98016.83;89462;1279;81526;-72
2022/02/19 00:11:20;;;;;;;13.50;5.40;;;;;;;8.68;77.72;98024.74;89397;1279;99504;-73
2022/02/19 00:13:26;;;;;;;12.40;5.00;;;;;;;8.67;77.65;98024.95;89402;1279;87366;-57
2022/02/19 00:15:34;;;;;;;13.20;5.70;;;;;;;8.70;77.66;98028.98;89462;1278;93496;-57
2022/02/19 00:17:40;;;;;;;11.00;4.70;;;;;;;8.72;77.59;98023.91;89444;1279;80010;-57
2022/02/19 00:19:46;;;;;;;13.90;5.50;;;;;;;8.76;77.60;98017.54;89442;1278;80490;-57
2022/02/19 00:21:52;;;;;;;12.10;5.00;;;;;;;8.78;77.48;98009.52;89127;1282;99447;-57
2022/02/19 00:23:58;;;;;;;8.90;4.80;;;;;;;8.80;77.45;98006.33;89458;1279;89546;-57
2022/02/19 00:26:03;;;;;;;11.20;4.90;;;;;;;8.82;77.47;98017.27;89436;1279;94247;-58
2022/02/19 00:28:09;;;;;;;10.50;5.10;;;;;;;8.86;77.35;98019.59;89424;1278;78103;-57
2022/02/19 00:30:17;;;;;;;10.90;5.10;;;;;;;8.88;77.20;98012.64;89426;1279;82720;-57
2022/02/19 00:32:23;;;;;;;12.40;5.80;;;;;;;8.89;77.10;98020.31;89452;1279;98675;-72
2022/02/19 00:34:30;;;;;;;10.60;5.00;;;;;;;8.89;77.05;98005.08;89450;1279;90775;-72
2022/02/19 00:36:38;;;;;;;7.90;4.50;;;;;;;8.90;76.96;98003.96;89403;1278;94625;-73
2022/02/19 00:38:47;;;;;;;12.90;4.60;;;;;;;8.92;76.95;98009.70;89439;1278;81459;-72
2022/02/19 00:40:53;;;;;;;10.50;4.70;;;;;;;8.92;76.75;98004.11;89400;1279;80601;-72
2022/02/19 00:42:58;;;;;;;12.70;3.70;;;;;;;8.96;76.56;98004.23;89394;1279;97696;-57
2022/02/19 00:45:05;;;;;;;7.80;3.90;;;;;;;9.03;76.50;98025.02;89447;1278;88790;-57
2022/02/19 00:47:10;;;;;;;8.70;4.30;;;;;;;9.07;76.45;98053.16;89431;1278;95542;-58
2022/02/19 00:49:19;;;;;;;8.30;3.90;;;;;;;9.10;76.71;98074.23;89442;1279;80039;-57
2022/02/19 00:51:29;;;;;;;15.00;8.10;;;;;;;9.12;77.21;98117.86;89460;1279;81536;-57
2022/02/19 00:53:34;;;;;;;14.60;6.60;;;;;;;9.07;77.83;98140.20;89466;1278;97961;-57
2022/02/19 00:55:43;;;;;;;9.70;4.50;;;;;;;8.95;78.15;98149.04;89466;1278;87804;-57
2022/02/19 00:57:49;;;;;;;7.00;2.70;;;;;;;8.88;78.55;98127.27;89438;1279;96114;-59
2022/02/19 00:59:55;;;;;;;6.30;2.60;;;;;;;8.77;77.91;98124.33;89390;1279;80284;-58
2022/02/19 01:02:00;;;;;;;5.00;1.90;;;;;;;8.69;77.78;98123.97;89404;1279;80664;-57
2022/02/19 01:04:06;;;;;;;5.20;1.80;;;;;;;8.59;77.47;98121.31;89475;1278;97767;-57
2022/02/19 01:06:15;;;;;;;6.00;2.00;;;;;;;8.49;76.80;98123.15;89242;1281;88309;-58
2022/02/19 01:08:23;;;;;;;4.40;1.70;;;;;;;8.39;76.29;98126.94;89438;1278;93224;-71
2022/02/19 01:10:29;;;;;;;3.10;1.50;;;;;;;8.30;76.11;98130.68;89430;1279;78294;-71
2022/02/19 01:12:35;;;;;;;3.10;1.40;;;;;;;8.22;75.56;98135.82;89483;1278;80796;-57
2022/02/19 01:14:41;;;;;;;3.00;1.20;;;;;;;8.17;75.28;98140.28;89445;1278;100124;-57
2022/02/19 01:16:51;;;;;;;5.20;2.00;;;;;;;8.11;75.07;98142.79;89477;1279;89456;-57
2022/02/19 01:19:00;;;;;;;4.00;1.50;;;;;;;8.07;74.69;98148.55;89463;1279;94549;-72
2022/02/19 01:21:05;;;;;;;3.40;1.40;;;;;;;8.03;74.47;98156.02;89448;1279;80057;-73
2022/02/19 01:23:12;;;;;;;3.80;1.40;;;;;;;7.98;74.21;98157.92;89469;1279;83112;-57
2022/02/19 01:25:18;;;;;;;4.30;1.40;;;;;;;7.94;74.09;98161.86;89459;1278;99927;-57
2022/02/19 01:27:24;;;;;;;4.20;1.50;;;;;;;7.89;74.07;98160.65;89449;1278;87985;-57
2022/02/19 01:29:32;;;;;;;4.50;1.50;;;;;;;7.86;73.42;98161.09;89422;1279;95045;-57
2022/02/19 01:31:38;;;;;;;4.80;1.00;;;;;;;7.84;73.40;98168.09;89466;1279;78539;-57
2022/02/19 01:33:43;;;;;;;3.00;1.40;;;;;;;7.82;73.09;98172.06;89456;1279;83642;-57
2022/02/19 01:35:49;;;;;;;4.10;1.60;;;;;;;7.80;73.14;98178.18;89458;1278;99508;-57
2022/02/19 01:37:55;;;;;;;3.10;1.20;;;;;;;7.73;72.79;98178.30;89408;1279;89346;-57
2022/02/19 01:40:06;;;;;;;3.60;1.20;;;;;;;7.63;72.53;98180.48;89450;1279;93176;-57
2022/02/19 01:42:14;;;;;;;4.70;1.20;;;;;;;7.52;72.44;98186.52;89413;1279;77564;-58
2022/02/19 01:44:34;;;;;;;5.00;1.30;;;;;;;7.44;72.32;98185.25;89464;1279;80012;-57
2022/02/19 01:46:41;;;;;;;2.60;1.30;;;;;;;7.34;72.34;98184.23;89426;1279;99786;-57
2022/02/19 01:48:47;;;;;;;4.50;1.20;;;;;;;7.27;72.11;98186.25;89403;1279;88482;-57
2022/02/19 01:50:53;;;;;;;3.60;1.70;;;;;;;7.26;72.05;98189.19;89446;1279;94705;-57
2022/02/19 01:53:01;;;;;;;4.50;1.30;;;;;;;7.24;71.64;98189.05;89449;1279;79576;-73
2022/02/19 01:55:08;;;;;;;3.30;1.00;;;;;;;7.22;71.09;98193.34;89461;1279;81210;-73
2022/02/19 01:57:14;;;;;;;3.80;1.30;;;;;;;7.22;71.07;98188.41;89473;1279;97258;-57
2022/02/19 01:59:23;;;;;;;3.90;1.20;;;;;;;7.22;71.15;98187.47;89456;1279;86779;-57
2022/02/19 02:01:28;;;;;;;4.10;1.10;;;;;;;7.18;70.98;98187.25;89413;1279;94479;-57
2022/02/19 02:03:34;;;;;;;4.20;1.10;;;;;;;7.13;70.93;98191.77;89474;1279;77292;-57
2022/02/19 02:05:39;;;;;;;2.90;1.00;;;;;;;7.07;70.98;98194.21;89456;1278;83277;-57
2022/02/19 02:07:45;;;;;;;4.20;1.10;;;;;;;7.01;70.69;98195.96;89426;1279;98558;-73
2022/02/19 02:09:51;;;;;;;4.00;0.80;;;;;;;7.00;70.12;98197.63;89469;1278;88737;-72
2022/02/19 02:12:00;;;;;;;2.60;1.40;;;;;;;7.00;69.91;98202.78;89456;1279;96462;-72
2022/02/19 02:14:07;;;;;;;2.50;0.80;;;;;;;6.99;69.41;98205.60;89421;1279;79078;-72
2022/02/19 02:16:12;;;;;;;5.40;1.00;;;;;;;7.01;69.53;98218.59;89471;1279;81909;-74
2022/02/19 02:18:21;;;;;;;4.70;1.20;;;;;;;6.99;69.47;98224.92;89303;1279;98972;-72
2022/02/19 02:20:30;;;;;;;5.20;1.30;;;;;;;6.95;68.61;98219.39;89420;1279;89007;-72
2022/02/19 02:22:36;;;;;;;3.40;1.00;;;;;;;6.95;68.21;98228.39;89416;1279;94467;-57
2022/02/19 02:24:42;;;;;;;3.40;1.20;;;;;;;6.95;67.90;98223.07;89391;1279;78096;-57
2022/02/19 02:26:47;;;;;;;4.20;1.00;;;;;;;6.97;66.30;98232.59;89411;1279;81366;-57
2022/02/19 02:28:53;;;;;;;3.50;0.90;;;;;;;6.99;66.10;98232.55;89412;1279;98576;-57
2022/02/19 02:31:05;;;;;;;4.40;1.20;;;;;;;6.99;66.86;98240.00;89406;1279;89442;-57
2022/02/19 02:33:13;;;;;;;3.40;0.80;;;;;;;6.94;66.31;98242.52;89405;1279;95989;-72
2022/02/19 02:35:22;;;;;;;3.60;1.20;;;;;;;6.91;66.25;98258.10;89415;1279;77271;-72
2022/02/19 02:37:28;;;;;;;3.70;1.00;;;;;;;6.90;66.22;98262.20;89361;1279;80941;-57
2022/02/19 02:39:33;;;;;;;5.40;1.20;;;;;;;6.89;66.22;98263.30;89319;1279;100045;-57
2022/02/19 02:41:42;;;;;;;5.30;1.70;;;;;;;6.90;66.00;98270.59;89349;1279;88196;-57
2022/02/19 02:43:47;;;;;;;4.40;1.10;;;;;;;6.87;66.11;98274.08;89369;1279;93258;-73
2022/02/19 02:45:53;;;;;;;5.90;1.30;;;;;;;6.82;66.13;98282.83;89326;1279;77392;-72
2022/02/19 02:48:02;;;;;;;3.60;1.20;;;;;;;6.78;66.04;98290.24;89370;1279;80798;-57
2022/02/19 02:50:12;;;;;;;3.40;0.90;;;;;;;6.74;66.03;98285.60;89364;1279;101237;-58
2022/02/19 02:52:18;;;;;;;3.50;0.90;;;;;;;6.76;65.63;98289.88;89201;1279;87464;-57
2022/02/19 02:54:23;;;;;;;5.50;0.90;;;;;;;6.82;65.84;98298.22;89353;1278;94968;-57
2022/02/19 02:56:30;;;;;;;3.60;1.10;;;;;;;6.86;65.51;98304.31;89354;1279;78091;-57
2022/02/19 02:58:36;;;;;;;3.60;1.20;;;;;;;6.90;65.76;98310.09;89205;1281;80444;-57
2022/02/19 03:00:42;;;;;;;3.50;0.80;;;;;;;6.91;65.92;98303.81;89348;1279;97908;-57
2022/02/19 03:02:47;;;;;;;5.70;1.10;;;;;;;6.92;65.90;98303.49;89378;1279;88275;-70
2022/02/19 03:04:53;;;;;;;2.90;1.00;;;;;;;6.94;65.01;98308.76;89357;1279;95194;-71
2022/02/19 03:06:59;;;;;;;5.00;0.90;;;;;;;6.96;64.78;98309.67;89176;1281;77417;-70
2022/02/19 03:09:05;;;;;;;5.30;1.10;;;;;;;6.95;65.01;98309.73;89378;1279;79927;-70
2022/02/19 03:11:13;;;;;;;3.20;0.90;;;;;;;6.97;64.65;98311.02;89367;1278;99723;-72
2022/02/19 03:13:19;;;;;;;3.20;1.40;;;;;;;6.99;64.52;98311.89;89187;1281;89365;-57
2022/02/19 03:15:28;;;;;;;4.60;1.40;;;;;;;7.02;64.96;98316.66;89352;1279;95444;-57
2022/02/19 03:17:40;;;;;;;2.60;1.00;;;;;;;7.02;65.00;98312.08;89194;1281;77529;-71
2022/02/19 03:19:45;;;;;;;5.30;1.30;;;;;;;7.03;64.52;98317.95;89362;1279;81259;-73
2022/02/19 03:21:51;;;;;;;2.90;1.00;;;;;;;7.06;64.73;98323.02;89187;1281;99615;-72
2022/02/19 03:23:57;;;;;;;4.70;1.40;;;;;;;7.06;64.59;98318.23;89369;1279;88406;-57
2022/02/19 03:26:07;;;;;;;5.20;1.70;;;;;;;7.03;64.32;98316.65;89340;1278;94178;-57
2022/02/19 03:28:15;;;;;;;5.80;1.30;;;;;;;7.01;64.43;98323.48;89342;1279;76960;-73
2022/02/19 03:30:21;;;;;;;5.40;1.30;;;;;;;6.96;63.93;98320.64;89172;1279;79851;-72
2022/02/19 03:32:26;;;;;;;5.00;1.30;;;;;;;6.92;63.80;98327.63;89362;1279;98195;-57
2022/02/19 03:34:35;;;;;;;7.00;1.70;;;;;;;6.91;63.74;98333.27;89343;1279;87807;-57
2022/02/19 03:36:44;;;;;;;5.90;1.20;;;;;;;6.91;63.80;98335.91;88811;1280;462854;-57
2022/02/19 03:38:50;;;;;;;6.50;1.30;;;;;;;6.90;63.73;98339.66;89359;1278;80863;-57
2022/02/19 03:40:55;;;;;;;4.50;1.20;;;;;;;6.90;63.57;98346.68;89358;1279;83284;-60
2022/02/19 03:43:04;;;;;;;7.60;1.20;;;;;;;6.90;63.14;98337.92;89340;1279;100217;-57
2022/02/19 03:45:13;;;;;;;7.80;1.40;;;;;;;6.92;63.03;98341.84;89094;1282;88277;-57
2022/02/19 03:47:19;;;;;;;2.40;0.90;;;;;;;6.94;63.24;98337.83;89331;1279;95977;-71
2022/02/19 03:49:28;;;;;;;6.30;1.20;;;;;;;6.96;62.98;98350.61;89334;1279;76596;-71
2022/02/19 03:51:33;;;;;;;4.30;1.00;;;;;;;6.98;62.73;98351.84;89341;1279;83232;-72
2022/02/19 03:53:39;;;;;;;4.00;1.10;;;;;;;6.95;62.98;98363.86;89212;1281;99422;-73
2022/02/19 03:55:48;;;;;;;4.70;0.90;;;;;;;6.90;61.72;98364.15;89194;1281;88425;-73
2022/02/19 03:57:53;;;;;;;4.20;1.20;;;;;;;6.92;60.54;98365.75;89191;1281;95665;-74
2022/02/19 03:59:59;;;;;;;2.60;1.00;;;;;;;6.91;60.56;98384.12;89360;1278;79960;-73
2022/02/19 04:02:05;;;;;;;5.40;1.00;;;;;;;6.82;60.97;98382.11;89103;1282;83628;-65
2022/02/19 04:04:14;;;;;;;4.10;1.50;;;;;;;6.74;60.76;98396.85;89324;1279;100140;-58
2022/02/19 04:06:22;;;;;;;5.60;1.70;;;;;;;6.68;59.92;98391.26;89263;1279;89046;-58
2022/02/19 04:08:28;;;;;;;4.90;1.50;;;;;;;6.69;59.51;98401.95;89346;1279;93913;-57
2022/02/19 04:10:34;;;;;;;3.50;1.00;;;;;;;6.69;59.03;98406.77;89172;1281;80106;-59
2022/02/19 04:12:43;;;;;;;4.10;0.90;;;;;;;6.73;58.81;98397.23;89363;1279;82511;-73
2022/02/19 04:14:49;;;;;;;5.20;1.10;;;;;;;6.77;58.96;98410.79;89342;1279;98159;-76
2022/02/19 04:16:57;;;;;;;4.70;1.20;;;;;;;6.79;59.01;98418.09;89343;1279;89382;-73
2022/02/19 04:19:03;;;;;;;4.00;1.00;;;;;;;6.82;58.83;98411.63;89199;1281;94116;-58
2022/02/19 04:21:08;;;;;;;3.90;1.20;;;;;;;6.83;59.04;98419.23;89341;1279;78322;-58
2022/02/19 04:23:17;;;;;;;4.00;1.60;;;;;;;6.84;58.73;98400.53;89355;1279;80648;-73
2022/02/19 04:25:25;;;;;;;3.60;1.30;;;;;;;6.85;58.61;98416.73;89312;1279;99967;-73
2022/02/19 04:27:31;;;;;;;7.90;2.10;;;;;;;6.85;58.67;98415.99;89354;1279;88860;-58
2022/02/19 04:29:39;;;;;;;2.90;1.30;;;;;;;6.86;58.67;98422.71;89278;1279;95318;-58
2022/02/19 04:31:45;;;;;;;4.50;1.70;;;;;;;6.84;58.86;98427.48;89343;1279;76836;-59
2022/02/19 04:33:51;;;;;;;6.20;1.70;;;;;;;6.83;58.98;98422.86;89380;1279;83682;-58
2022/02/19 04:35:57;;;;;;;6.00;1.40;;;;;;;6.83;59.18;98430.75;89198;1281;100074;-58
2022/02/19 04:38:02;;;;;;;5.40;1.60;;;;;;;6.83;58.86;98433.18;89204;1281;87210;-72
2022/02/19 04:40:13;;;;;;;5.80;2.10;;;;;;;6.84;59.29;98434.88;89208;1281;95637;-73
2022/02/19 04:42:19;;;;;;;6.30;2.60;;;;;;;6.83;59.77;98436.52;89023;1282;78326;-71
2022/02/19 04:44:25;;;;;;;7.60;2.80;;;;;;;6.82;58.65;98436.77;89252;1279;81061;-71
2022/02/19 04:46:33;;;;;;;4.20;1.70;;;;;;;6.82;59.64;98442.83;89187;1281;100001;-72
2022/02/19 04:48:42;;;;;;;5.60;1.30;;;;;;;6.79;59.97;98443.89;89375;1279;87099;-72
2022/02/19 04:50:48;;;;;;;3.70;1.40;;;;;;;6.77;60.22;98441.50;89183;1281;93072;-72
2022/02/19 04:52:56;;;;;;;2.90;1.10;;;;;;;6.75;60.30;98444.19;89340;1279;79577;-73
2022/02/19 04:55:06;;;;;;;4.60;1.30;;;;;;;6.73;60.30;98446.81;89356;1279;81561;-73
2022/02/19 04:57:13;;;;;;;5.30;1.50;;;;;;;6.70;60.70;98445.74;89344;1279;99430;-72
2022/02/19 04:59:18;;;;;;;4.90;1.20;;;;;;;6.67;60.84;98450.70;89340;1279;87536;-73
2022/02/19 05:01:27;;;;;;;4.10;0.90;;;;;;;6.64;60.77;98445.56;89354;1279;94516;-73
2022/02/19 05:03:35;;;;;;;5.30;1.30;;;;;;;6.61;60.71;98438.96;89351;1279;77727;-74
2022/02/19 05:05:43;;;;;;;4.00;1.20;;;;;;;6.60;60.65;98439.82;89373;1279;81303;-74
2022/02/19 05:07:49;;;;;;;4.50;1.20;;;;;;;6.61;60.41;98443.59;89344;1279;98400;-74
2022/02/19 05:09:58;;;;;;;5.30;1.60;;;;;;;6.63;60.58;98439.99;89364;1279;87692;-72
2022/02/19 05:12:04;;;;;;;6.60;1.80;;;;;;;6.64;60.53;98442.84;88913;1284;96226;-72
2022/02/19 05:14:13;;;;;;;8.00;1.20;;;;;;;6.64;60.21;98442.11;89334;1279;78564;-73
2022/02/19 05:16:22;;;;;;;4.70;1.30;;;;;;;6.66;59.83;98448.89;89386;1279;82924;-71
2022/02/19 05:18:31;;;;;;;5.00;1.40;;;;;;;6.65;59.87;98446.95;89364;1279;98860;-58
2022/02/19 05:20:38;;;;;;;7.20;1.50;;;;;;;6.65;59.52;98453.48;89350;1279;89272;-57
2022/02/19 05:22:47;;;;;;;7.90;1.50;;;;;;;6.64;59.35;98457.66;89198;1281;94318;-74
2022/02/19 05:24:52;;;;;;;5.10;1.30;;;;;;;6.67;58.79;98453.39;89351;1279;77077;-72
2022/02/19 05:26:58;;;;;;;6.00;1.20;;;;;;;6.68;59.17;98457.19;89223;1281;82862;-73
2022/02/19 05:29:03;;;;;;;7.60;1.90;;;;;;;6.67;58.47;98444.56;89212;1280;98343;-72
2022/02/19 05:31:12;;;;;;;4.50;1.30;;;;;;;6.71;58.36;98456.02;89380;1279;87891;-72
2022/02/19 05:33:18;;;;;;;5.70;1.30;;;;;;;6.72;58.76;98455.84;89360;1279;96031;-57
2022/02/19 05:35:24;;;;;;;4.20;1.10;;;;;;;6.72;58.67;98448.75;89343;1279;77645;-58
2022/02/19 05:37:32;;;;;;;4.60;1.20;;;;;;;6.72;58.62;98458.04;89090;1282;82232;-73
2022/02/19 05:39:39;;;;;;;6.20;1.30;;;;;;;6.72;59.03;98462.33;89342;1279;99868;-71
2022/02/19 05:41:44;;;;;;;4.90;1.50;;;;;;;6.74;58.62;98465.98;89367;1279;88436;-71
2022/02/19 05:43:53;;;;;;;4.60;1.50;;;;;;;6.75;58.01;98467.77;89353;1279;95415;-72
2022/02/19 05:45:59;;;;;;;6.90;1.40;;;;;;;6.76;58.41;98474.61;89214;1281;76614;-73
2022/02/19 05:48:08;;;;;;;5.00;1.30;;;;;;;6.76;58.61;98478.04;89347;1279;79474;-57
2022/02/19 05:50:13;;;;;;;6.80;2.00;;;;;;;6.73;58.29;98471.02;89368;1279;97990;-57
2022/02/19 05:52:20;;;;;;;4.90;1.60;;;;;;;6.72;57.99;98472.64;89378;1279;89281;-73
2022/02/19 05:54:28;;;;;;;4.00;1.00;;;;;;;6.70;57.87;98472.04;89335;1279;93608;-72
2022/02/19 05:56:34;;;;;;;5.60;1.40;;;;;;;6.68;57.67;98475.96;89355;1279;77899;-72
2022/02/19 05:58:43;;;;;;;8.60;1.80;;;;;;;6.65;56.46;98471.54;89364;1279;81938;-57
2022/02/19 06:00:49;;;;;;;6.40;1.50;;;;;;;6.63;56.93;98475.93;89388;1280;98791;-57
2022/02/19 06:02:55;;;;;;;3.10;1.30;;;;;;;6.60;57.28;98479.59;89228;1281;87065;-57
2022/02/19 06:05:00;;;;;;;5.40;1.20;;;;;;;6.57;56.40;98483.16;89374;1279;95868;-57
2022/02/19 06:07:09;;;;;;;5.20;1.30;;;;;;;6.57;56.43;98490.73;89370;1279;79092;-69
2022/02/19 06:09:17;;;;;;;6.50;1.70;;;;;;;6.57;56.62;98499.06;89236;1281;83100;-72
2022/02/19 06:11:23;;;;;;;8.50;1.60;;;;;;;6.58;55.51;98502.52;89371;1279;99063;-72
2022/02/19 06:13:31;;;;;;;6.50;1.50;;;;;;;6.60;56.10;98502.85;89380;1280;89450;-71
2022/02/19 06:15:38;;;;;;;5.60;1.80;;;;;;;6.60;55.51;98519.44;89377;1280;95362;-72
2022/02/19 06:17:43;;;;;;;7.50;2.10;;;;;;;6.61;55.12;98511.07;89239;1281;77957;-58
2022/02/19 06:19:49;;;;;;;4.90;1.60;;;;;;;6.62;55.45;98513.25;89413;1279;81270;-59
2022/02/19 06:21:55;;;;;;;5.20;1.40;;;;;;;6.62;54.96;98505.48;89365;1280;99204;-58
2022/02/19 06:24:00;;;;;;;3.30;1.20;;;;;;;6.63;55.05;98520.59;89239;1281;87352;-73
2022/02/19 06:26:06;;;;;;;4.50;1.70;;;;;;;6.63;55.41;98514.90;89359;1279;92605;-73
2022/02/19 06:28:14;;;;;;;4.80;1.30;;;;;;;6.63;55.04;98520.48;89364;1280;76636;-58
2022/02/19 06:30:23;;;;;;;5.50;1.40;;;;;;;6.63;55.11;98520.18;89222;1281;82427;-59
2022/02/19 06:32:29;;;;;;;5.60;1.50;;;;;;;6.63;55.20;98524.19;89237;1281;100344;-58
2022/02/19 06:34:34;;;;;;;8.70;1.50;;;;;;;6.63;54.56;98511.14;89364;1279;89147;-57
2022/02/19 06:36:40;;;;;;;5.90;1.50;;;;;;;6.64;54.77;98516.14;89197;1281;94724;-57
2022/02/19 06:38:46;;;;;;;9.00;1.70;;;;;;;6.64;54.49;98509.61;89057;1283;78776;-73
2022/02/19 06:40:55;;;;;;;6.50;1.50;;;;;;;6.64;53.72;98517.59;89373;1279;82262;-72
2022/02/19 06:43:00;;;;;;;5.80;1.40;;;;;;;6.66;54.04;98523.27;89214;1281;99459;-57
2022/02/19 06:45:08;;;;;;;6.00;1.50;;;;;;;6.66;54.21;98512.62;89209;1281;87768;-58
2022/02/19 06:47:17;;;;;;;6.30;1.30;;;;;;;6.66;53.08;98514.07;89360;1280;95290;-58
2022/02/19 06:49:22;;;;;;;7.50;1.90;;;;;;;6.69;53.52;98520.54;89313;1279;77255;-58
2022/02/19 06:51:30;;;;;;;4.30;1.40;;;;;;;6.69;53.97;98514.31;89320;1280;82322;-58
2022/02/19 06:53:37;;;;;;;6.40;2.00;;;;;;;6.70;53.35;98509.07;89215;1280;99663;-58
2022/02/19 06:55:42;;;;;;;4.90;1.90;;;;;;;6.72;53.40;98514.14;89346;1280;88748;-58
2022/02/19 06:57:50;;;;;;;5.20;1.30;;;;;;;6.75;53.78;98505.83;89024;1283;94133;-73
2022/02/19 06:59:55;;;;;;;5.40;1.40;;;;;;;6.84;53.48;98501.34;89343;1279;77344;-72
2022/02/19 07:02:04;;;;;;;6.20;1.50;;;;;;;6.95;52.96;98503.40;89343;1279;83160;-72
2022/02/19 07:04:14;;;;;;;5.80;1.10;;;;;;;7.06;53.26;98496.17;89324;1279;98860;-73
2022/02/19 07:06:20;;;;;;;6.30;1.40;;;;;;;7.09;52.74;98503.91;89314;1279;87305;-73
2022/02/19 07:08:29;;;;;;;5.70;1.30;;;;;;;7.11;53.27;98489.88;89205;1281;95963;-58
2022/02/19 07:10:34;;;;;;;7.10;1.90;;;;;;;7.12;52.52;98495.60;89306;1280;79426;-58
2022/02/19 07:12:43;;;;;;;5.20;1.40;;;;;;;7.17;52.26;98497.44;89216;1281;80665;-58
2022/02/19 07:14:48;;;;;;;8.30;1.40;;;;;;;7.23;52.56;98500.77;89342;1280;98533;-58
2022/02/19 07:17:02;;;;;;;8.30;1.60;;;;;;;7.25;52.75;98498.89;89196;1281;87487;-58
2022/02/19 07:19:08;;;;;;;5.30;1.40;;;;;;;7.24;52.61;98504.56;89316;1279;93598;-58
2022/02/19 07:21:13;;;;;;;8.40;1.90;;;;;;;7.25;52.90;98508.19;89202;1281;76741;-58
2022/02/19 07:23:21;;;;;;;6.20;1.80;;;;;;;7.22;51.17;98506.71;89362;1280;81560;-58
2022/02/19 07:25:29;;;;;;;6.70;2.40;;;;;;;7.24;51.59;98505.30;89321;1280;99479;-58
2022/02/19 07:27:39;;;;;;;5.70;1.50;;;;;;;7.25;52.15;98507.89;89324;1279;89652;-73
2022/02/19 07:29:45;;;;;;;6.20;1.80;;;;;;;7.26;51.31;98507.98;89176;1281;95569;-71
2022/02/19 07:31:51;;;;;;;5.70;1.90;;;;;;;7.29;51.01;98514.61;89325;1281;77800;-72
2022/02/19 07:33:57;;;;;;;7.40;1.50;;;;;;;7.30;51.34;98515.23;89336;1281;83353;-72
2022/02/19 07:36:03;;;;;;;5.90;1.50;;;;;;;7.37;51.54;98514.13;89206;1281;98899;-71
2022/02/19 07:38:08;;;;;;;8.30;1.80;;;;;;;7.43;51.53;98514.21;89197;1281;89221;-58
2022/02/19 07:40:14;;;;;;;5.30;1.60;;;;;;;7.50;51.71;98515.86;89321;1281;96122;-58
2022/02/19 07:42:20;;;;;;;5.90;1.50;;;;;;;7.55;51.56;98521.73;89221;1281;78634;-71
2022/02/19 07:44:28;;;;;;;3.90;1.20;;;;;;;7.60;51.06;98517.48;89339;1280;84135;-71
2022/02/19 07:46:37;;;;;;;6.00;1.80;;;;;;;7.59;50.83;98529.95;89313;1281;99678;-71
2022/02/19 07:48:42;;;;;;;6.30;1.40;;;;;;;7.61;51.40;98527.41;89205;1281;89371;-58
2022/02/19 07:58:33;;;;;;;4.60;1.40;;;;;;;7.59;50.42;98537.67;88897;1280;97460;-58
2022/02/19 08:00:39;;;;;;;4.00;0.90;;;;;;;7.60;51.05;98536.71;89177;1279;87803;-58
2022/02/19 08:02:45;;;;;;;5.00;1.90;;;;;;;7.65;50.96;98532.17;89320;1280;94361;-72
2022/02/19 08:04:50;;;;;;;4.60;1.20;;;;;;;7.71;50.47;98534.45;89204;1281;77248;-72
2022/02/19 08:06:57;;;;;;;5.10;1.60;;;;;;;7.75;50.29;98551.19;89331;1279;82227;-73
2022/02/19 08:09:03;;;;;;;5.80;1.40;;;;;;;7.76;50.56;98545.11;89326;1279;98385;-56
2022/02/19 08:11:13;;;;;;;4.50;1.10;;;;;;;7.84;50.73;98554.88;89193;1281;89402;-59
2022/02/19 08:13:22;;;;;;;5.90;1.60;;;;;;;8.01;50.11;98552.08;89203;1281;95384;-58
2022/02/19 08:15:28;;;;;;;3.90;1.00;;;;;;;9.05;51.24;98551.96;89229;1281;76976;-56
2022/02/19 08:17:37;;;;;;;8.70;1.90;;;;;;;10.07;50.63;98559.15;89337;1279;82767;-57
2022/02/19 08:19:42;;;;;;;6.00;1.60;;;;;;;11.16;49.01;98562.06;88978;1283;99985;-57
2022/02/19 08:21:51;;;;;;;4.00;1.80;;;;;;;11.77;45.73;98552.27;89335;1279;88674;-57
2022/02/19 08:23:57;;;;;;;5.70;1.40;;;;;;;12.47;45.55;98565.95;89341;1279;94771;-57
2022/02/19 08:26:06;;;;;;;5.30;1.70;;;;;;;12.84;43.37;98556.89;89191;1281;78180;-57
2022/02/19 08:28:12;;;;;;;5.90;1.20;;;;;;;13.68;43.15;98561.71;89019;1283;83009;-57
2022/02/19 08:30:21;;;;;;;5.10;1.60;;;;;;;14.90;44.22;98580.79;89321;1279;100082;-57
2022/02/19 08:32:27;;;;;;;5.30;1.60;;;;;;;14.52;42.11;98583.36;89235;1281;87045;-57
2022/02/19 08:34:32;;;;;;;4.80;1.30;;;;;;;13.89;40.68;98570.09;89198;1281;95632;-57
2022/02/19 08:36:38;;;;;;;4.10;1.50;;;;;;;14.11;38.98;98573.91;89315;1279;77203;-57
2022/02/19 08:38:43;;;;;;;7.10;1.30;;;;;;;13.96;40.36;98589.33;89333;1279;81583;-57
2022/02/19 08:40:52;;;;;;;4.90;1.40;;;;;;;13.38;40.60;98584.67;89226;1281;99700;-57
2022/02/19 08:43:01;;;;;;;5.00;2.10;;;;;;;12.94;41.55;98578.99;89355;1279;87032;-71
2022/02/19 08:45:11;;;;;;;6.40;1.80;;;;;;;13.38;41.79;98583.98;89215;1281;93064;-71
2022/02/19 08:47:17;;;;;;;4.60;1.60;;;;;;;13.07;40.51;98579.75;89321;1279;79998;-70
2022/02/19 08:49:22;;;;;;;3.90;1.40;;;;;;;13.01;42.00;98583.44;89003;1284;82513;-72
2022/02/19 08:51:28;;;;;;;6.00;1.30;;;;;;;12.86;42.18;98581.27;89339;1279;100399;-70
2022/02/19 08:53:36;;;;;;;4.70;1.50;;;;;;;12.80;42.25;98576.94;89338;1279;89507;-57
2022/02/19 08:55:42;;;;;;;7.00;1.40;;;;;;;13.38;42.57;98582.92;89206;1281;95427;-58
2022/02/19 08:57:48;;;;;;;8.20;1.70;;;;;;;14.41;40.73;98583.12;89349;1279;77090;-57
2022/02/19 08:59:57;;;;;;;3.50;1.00;;;;;;;14.72;39.24;98573.98;89338;1279;83695;-58
2022/02/19 09:02:03;;;;;;;9.00;1.50;;;;;;;15.02;38.83;98583.71;89306;1279;99595;-58
2022/02/19 09:04:13;;;;;;;4.80;1.70;;;;;;;15.50;38.42;98589.50;89049;1282;87189;-58
2022/02/19 09:06:18;;;;;;;4.20;1.70;;;;;;;16.03;38.32;98591.83;89210;1281;93219;-58
2022/02/19 09:08:24;;;;;;;4.20;1.80;;;;;;;16.44;38.29;98582.42;89310;1279;78981;-71
2022/02/19 09:10:30;;;;;;;5.00;1.50;;;;;;;16.83;38.08;98595.77;89350;1279;81346;-70
2022/02/19 09:12:36;;;;;;;3.80;1.60;;;;;;;17.32;38.48;98599.41;89327;1279;99731;-58
2022/02/19 09:14:42;;;;;;;5.40;1.60;;;;;;;17.47;35.93;98584.42;89235;1281;87846;-57
2022/02/19 09:16:50;;;;;;;3.80;1.40;;;;;;;17.42;36.82;98608.89;89218;1280;95203;-58
2022/02/19 09:18:59;;;;;;;4.90;1.60;;;;;;;17.40;36.29;98595.29;89349;1279;78852;-58
2022/02/19 09:21:08;;;;;;;4.20;1.60;;;;;;;16.95;34.64;98606.06;89230;1281;82562;-58
2022/02/19 09:23:17;;;;;;;6.50;1.60;;;;;;;16.17;35.43;98618.67;89346;1279;98224;-71
2022/02/19 09:25:26;;;;;;;6.10;1.40;;;;;;;16.16;36.53;98621.02;89255;1281;87824;-68
2022/02/19 09:27:32;;;;;;;6.00;1.50;;;;;;;15.94;35.68;98622.41;89330;1279;95781;-68
2022/02/19 09:29:37;;;;;;;11.00;1.90;;;;;;;15.92;36.34;98601.11;89215;1281;77760;-71
2022/02/19 09:31:43;;;;;;;4.80;1.60;;;;;;;16.21;35.92;98634.87;89363;1279;81867;-70
2022/02/19 09:33:53;;;;;;;5.90;1.50;;;;;;;16.18;35.58;98632.80;89346;1279;99327;-72
2022/02/19 09:35:59;;;;;;;4.30;1.60;;;;;;;15.79;35.14;98642.35;89355;1278;88044;-71
2022/02/19 09:38:08;;;;;;;5.80;1.70;;;;;;;16.04;36.41;98658.90;89332;1279;93284;-69
2022/02/19 09:40:17;;;;;;;10.40;1.50;;;;;;;15.80;36.31;98642.95;89255;1281;79942;-71
2022/02/19 09:42:23;;;;;;;6.20;1.20;;;;;;;15.06;36.05;98651.94;89357;1279;83805;-71
2022/02/19 09:44:30;;;;;;;4.10;1.40;;;;;;;14.53;36.83;98661.33;89343;1279;99055;-71
2022/02/19 09:46:39;;;;;;;4.90;1.60;;;;;;;14.27;36.15;98654.86;89369;1279;86954;-71
2022/02/19 09:48:47;;;;;;;5.50;1.40;;;;;;;13.96;37.16;98666.34;89241;1281;96129;-71
2022/02/19 09:50:56;;;;;;;4.40;1.10;;;;;;;13.80;37.62;98662.44;89332;1278;78227;-71
2022/02/19 09:53:06;;;;;;;5.20;2.00;;;;;;;13.37;36.88;98658.39;89341;1279;83545;-58
2022/02/19 09:55:12;;;;;;;3.60;1.40;;;;;;;13.50;37.44;98670.95;89244;1280;99962;-56
2022/02/19 09:57:18;;;;;;;7.50;1.30;;;;;;;13.31;37.40;98669.95;89332;1279;88650;-72
2022/02/19 09:59:27;;;;;;;4.50;1.10;;;;;;;12.99;38.03;98661.14;89304;1279;94209;-73
2022/02/19 10:01:33;;;;;;;5.30;1.20;;;;;;;12.63;38.29;98678.90;89322;1279;78154;-73
2022/02/19 10:03:46;;;;;;;6.00;1.50;;;;;;;12.35;38.41;98660.48;89351;1279;82577;-57
2022/02/19 10:05:56;;;;;;;5.80;1.30;;;;;;;12.11;39.01;98690.20;89213;1279;98738;-57
2022/02/19 10:08:07;;;;;;;3.60;1.20;;;;;;;12.08;39.13;98694.39;89344;1279;86145;-71
2022/02/19 10:10:26;;;;;;;5.20;1.30;;;;;;;12.31;39.91;98706.33;89321;1279;94464;-71